sensor_id;sensor_type;location;lat;lon;timestamp;temperature;humidity
44607;DHT22;30315;46.072;14.474;2022-10-31T00:00:24;15.60;79.00
44607;DHT22;30315;46.072;14.474;2022-10-31T00:02:51;15.60;78.90
44607;DHT22;30315;46.072;14.474;2022-10-31T00:05:18;15.50;78.70
44607;DHT22;30315;46.072;14.474;2022-10-31T00:07:45;15.50;78.80
44607;DHT22;30315;46.072;14.474;2022-10-31T00:10:11;15.50;78.80
44607;DHT22;30315;46.072;14.474;2022-10-31T00:12:38;15.50;78.90
44607;DHT22;30315;46.072;14.474;2022-10-31T00:15:05;15.50;78.90
44607;DHT22;30315;46.072;14.474;2022-10-31T00:17:34;15.40;78.80
44607;DHT22;30315;46.072;14.474;2022-10-31T00:20:00;15.50;79.00
44607;DHT22;30315;46.072;14.474;2022-10-31T00:22:27;15.40;78.90
44607;DHT22;30315;46.072;14.474;2022-10-31T00:24:54;15.30;78.70
44607;DHT22;30315;46.072;14.474;2022-10-31T00:27:21;15.40;78.70
44607;DHT22;30315;46.072;14.474;2022-10-31T00:29:47;15.40;78.70
44607;DHT22;30315;46.072;14.474;2022-10-31T00:32:14;15.30;78.90
44607;DHT22;30315;46.072;14.474;2022-10-31T00:34:41;15.30;79.10
44607;DHT22;30315;46.072;14.474;2022-10-31T00:37:08;15.30;79.00
44607;DHT22;30315;46.072;14.474;2022-10-31T00:39:35;15.30;78.90
44607;DHT22;30315;46.072;14.474;2022-10-31T00:42:02;15.30;78.70
44607;DHT22;30315;46.072;14.474;2022-10-31T00:44:29;15.30;78.40
44607;DHT22;30315;46.072;14.474;2022-10-31T00:46:55;15.30;78.40
44607;DHT22;30315;46.072;14.474;2022-10-31T00:49:22;15.20;78.30
44607;DHT22;30315;46.072;14.474;2022-10-31T00:51:49;15.20;78.40
44607;DHT22;30315;46.072;14.474;2022-10-31T00:54:16;15.20;78.30
44607;DHT22;30315;46.072;14.474;2022-10-31T00:56:43;15.10;78.30
44607;DHT22;30315;46.072;14.474;2022-10-31T00:59:10;15.10;78.50
44607;DHT22;30315;46.072;14.474;2022-10-31T01:01:37;15.10;78.50
44607;DHT22;30315;46.072;14.474;2022-10-31T01:04:04;15.00;78.60
44607;DHT22;30315;46.072;14.474;2022-10-31T01:06:31;15.00;78.70
44607;DHT22;30315;46.072;14.474;2022-10-31T01:08:58;15.00;78.90
44607;DHT22;30315;46.072;14.474;2022-10-31T01:11:25;15.00;79.10
44607;DHT22;30315;46.072;14.474;2022-10-31T01:13:52;15.00;79.20
44607;DHT22;30315;46.072;14.474;2022-10-31T01:16:20;14.90;79.10
44607;DHT22;30315;46.072;14.474;2022-10-31T01:18:49;14.90;79.00
44607;DHT22;30315;46.072;14.474;2022-10-31T01:21:17;14.90;79.10
44607;DHT22;30315;46.072;14.474;2022-10-31T01:23:47;14.80;79.20
44607;DHT22;30315;46.072;14.474;2022-10-31T01:26:15;14.80;79.30
44607;DHT22;30315;46.072;14.474;2022-10-31T01:28:50;14.90;79.60
44607;DHT22;30315;46.072;14.474;2022-10-31T01:31:17;14.90;79.60
44607;DHT22;30315;46.072;14.474;2022-10-31T01:33:44;14.80;79.60
44607;DHT22;30315;46.072;14.474;2022-10-31T01:36:12;14.90;79.90
44607;DHT22;30315;46.072;14.474;2022-10-31T01:38:39;14.80;80.00
44607;DHT22;30315;46.072;14.474;2022-10-31T01:41:06;14.90;80.40
44607;DHT22;30315;46.072;14.474;2022-10-31T01:46:17;14.90;80.80
44607;DHT22;30315;46.072;14.474;2022-10-31T01:48:44;14.90;81.10
44607;DHT22;30315;46.072;14.474;2022-10-31T01:51:12;14.90;81.30
44607;DHT22;30315;46.072;14.474;2022-10-31T01:53:39;14.90;81.50
44607;DHT22;30315;46.072;14.474;2022-10-31T01:56:06;14.90;81.90
44607;DHT22;30315;46.072;14.474;2022-10-31T01:58:36;14.90;82.10
44607;DHT22;30315;46.072;14.474;2022-10-31T02:01:03;14.90;82.10
44607;DHT22;30315;46.072;14.474;2022-10-31T02:03:34;14.80;81.90
44607;DHT22;30315;46.072;14.474;2022-10-31T02:06:01;14.80;82.00
44607;DHT22;30315;46.072;14.474;2022-10-31T02:08:30;14.80;82.20
44607;DHT22;30315;46.072;14.474;2022-10-31T02:10:58;14.80;82.00
44607;DHT22;30315;46.072;14.474;2022-10-31T02:16:14;14.80;82.00
44607;DHT22;30315;46.072;14.474;2022-10-31T02:18:43;14.70;81.90
44607;DHT22;30315;46.072;14.474;2022-10-31T02:21:22;14.70;81.90
44607;DHT22;30315;46.072;14.474;2022-10-31T02:23:57;14.70;82.10
44607;DHT22;30315;46.072;14.474;2022-10-31T02:31:41;14.70;82.50
44607;DHT22;30315;46.072;14.474;2022-10-31T02:39:15;14.70;82.80
44607;DHT22;30315;46.072;14.474;2022-10-31T02:41:51;14.80;83.10
44607;DHT22;30315;46.072;14.474;2022-10-31T02:46:50;14.70;83.40
44607;DHT22;30315;46.072;14.474;2022-10-31T02:49:23;14.80;83.90
44607;DHT22;30315;46.072;14.474;2022-10-31T02:51:53;14.70;84.10
44607;DHT22;30315;46.072;14.474;2022-10-31T02:54:24;14.70;84.70
44607;DHT22;30315;46.072;14.474;2022-10-31T02:57:00;14.70;85.00
44607;DHT22;30315;46.072;14.474;2022-10-31T02:59:28;14.80;85.40
44607;DHT22;30315;46.072;14.474;2022-10-31T03:09:37;14.70;86.00
44607;DHT22;30315;46.072;14.474;2022-10-31T03:17:22;14.70;86.10
44607;DHT22;30315;46.072;14.474;2022-10-31T03:19:52;14.60;86.20
44607;DHT22;30315;46.072;14.474;2022-10-31T03:22:23;14.70;86.40
44607;DHT22;30315;46.072;14.474;2022-10-31T03:24:52;14.70;86.40
44607;DHT22;30315;46.072;14.474;2022-10-31T03:27:22;14.50;86.20
44607;DHT22;30315;46.072;14.474;2022-10-31T03:29:50;14.70;86.80
44607;DHT22;30315;46.072;14.474;2022-10-31T03:32:19;14.60;86.50
44607;DHT22;30315;46.072;14.474;2022-10-31T03:34:49;14.70;86.50
44607;DHT22;30315;46.072;14.474;2022-10-31T03:37:18;14.60;86.70
44607;DHT22;30315;46.072;14.474;2022-10-31T03:39:45;14.60;87.00
44607;DHT22;30315;46.072;14.474;2022-10-31T03:42:18;14.70;87.20
44607;DHT22;30315;46.072;14.474;2022-10-31T03:44:53;14.60;86.90
44607;DHT22;30315;46.072;14.474;2022-10-31T03:47:21;14.60;87.20
44607;DHT22;30315;46.072;14.474;2022-10-31T03:49:48;14.60;87.10
44607;DHT22;30315;46.072;14.474;2022-10-31T03:55:09;14.60;86.70
44607;DHT22;30315;46.072;14.474;2022-10-31T04:00:13;14.50;86.40
44607;DHT22;30315;46.072;14.474;2022-10-31T04:03:06;14.50;86.50
44607;DHT22;30315;46.072;14.474;2022-10-31T04:05:33;14.60;86.80
44607;DHT22;30315;46.072;14.474;2022-10-31T04:08:02;14.50;86.90
44607;DHT22;30315;46.072;14.474;2022-10-31T04:10:31;14.70;87.30
44607;DHT22;30315;46.072;14.474;2022-10-31T04:13:07;14.50;87.20
44607;DHT22;30315;46.072;14.474;2022-10-31T04:15:42;14.50;87.50
44607;DHT22;30315;46.072;14.474;2022-10-31T04:18:10;14.50;87.60
44607;DHT22;30315;46.072;14.474;2022-10-31T04:20:37;14.50;87.30
44607;DHT22;30315;46.072;14.474;2022-10-31T04:23:05;14.50;86.90
44607;DHT22;30315;46.072;14.474;2022-10-31T04:25:40;14.50;87.00
44607;DHT22;30315;46.072;14.474;2022-10-31T04:28:08;14.50;87.00
44607;DHT22;30315;46.072;14.474;2022-10-31T04:30:35;14.50;86.80
44607;DHT22;30315;46.072;14.474;2022-10-31T04:33:01;14.50;86.70
44607;DHT22;30315;46.072;14.474;2022-10-31T04:35:29;14.50;86.80
44607;DHT22;30315;46.072;14.474;2022-10-31T04:37:56;14.40;87.00
44607;DHT22;30315;46.072;14.474;2022-10-31T04:40:22;14.40;86.90
44607;DHT22;30315;46.072;14.474;2022-10-31T04:43:07;14.40;86.80
44607;DHT22;30315;46.072;14.474;2022-10-31T04:45:34;14.40;86.80
44607;DHT22;30315;46.072;14.474;2022-10-31T04:48:01;14.40;87.00
44607;DHT22;30315;46.072;14.474;2022-10-31T04:50:32;14.40;87.00
44607;DHT22;30315;46.072;14.474;2022-10-31T04:52:59;14.30;86.80
44607;DHT22;30315;46.072;14.474;2022-10-31T04:55:30;14.30;86.70
44607;DHT22;30315;46.072;14.474;2022-10-31T04:58:15;14.30;86.90
44607;DHT22;30315;46.072;14.474;2022-10-31T05:00:43;14.30;86.70
44607;DHT22;30315;46.072;14.474;2022-10-31T05:03:11;14.20;86.80
44607;DHT22;30315;46.072;14.474;2022-10-31T05:05:39;14.20;87.00
44607;DHT22;30315;46.072;14.474;2022-10-31T05:08:06;14.20;87.20
44607;DHT22;30315;46.072;14.474;2022-10-31T05:10:35;14.20;86.90
44607;DHT22;30315;46.072;14.474;2022-10-31T05:13:03;14.20;86.90
44607;DHT22;30315;46.072;14.474;2022-10-31T05:15:53;14.20;87.00
44607;DHT22;30315;46.072;14.474;2022-10-31T05:18:40;14.10;86.90
44607;DHT22;30315;46.072;14.474;2022-10-31T05:21:26;14.10;86.80
44607;DHT22;30315;46.072;14.474;2022-10-31T05:23:57;14.10;86.40
44607;DHT22;30315;46.072;14.474;2022-10-31T05:26:24;14.10;86.50
44607;DHT22;30315;46.072;14.474;2022-10-31T05:28:53;14.10;86.50
44607;DHT22;30315;46.072;14.474;2022-10-31T05:31:20;14.00;86.50
44607;DHT22;30315;46.072;14.474;2022-10-31T05:33:48;14.00;86.60
44607;DHT22;30315;46.072;14.474;2022-10-31T05:36:33;14.00;86.60
44607;DHT22;30315;46.072;14.474;2022-10-31T05:39:10;14.00;86.80
44607;DHT22;30315;46.072;14.474;2022-10-31T05:41:42;14.00;86.70
44607;DHT22;30315;46.072;14.474;2022-10-31T05:44:21;14.00;86.80
44607;DHT22;30315;46.072;14.474;2022-10-31T05:46:56;14.00;86.60
44607;DHT22;30315;46.072;14.474;2022-10-31T05:49:42;14.00;86.90
44607;DHT22;30315;46.072;14.474;2022-10-31T05:52:34;14.00;86.90
44607;DHT22;30315;46.072;14.474;2022-10-31T05:55:11;14.00;86.90
44607;DHT22;30315;46.072;14.474;2022-10-31T05:57:44;14.00;87.00
44607;DHT22;30315;46.072;14.474;2022-10-31T06:00:11;14.00;87.00
44607;DHT22;30315;46.072;14.474;2022-10-31T06:02:46;14.00;87.00
44607;DHT22;30315;46.072;14.474;2022-10-31T06:05:28;14.00;86.80
44607;DHT22;30315;46.072;14.474;2022-10-31T06:07:56;14.00;86.70
44607;DHT22;30315;46.072;14.474;2022-10-31T06:10:24;14.00;86.60
44607;DHT22;30315;46.072;14.474;2022-10-31T06:12:53;14.00;86.70
44607;DHT22;30315;46.072;14.474;2022-10-31T06:15:41;14.00;86.80
44607;DHT22;30315;46.072;14.474;2022-10-31T06:18:08;14.00;86.90
44607;DHT22;30315;46.072;14.474;2022-10-31T06:20:44;14.00;87.00
44607;DHT22;30315;46.072;14.474;2022-10-31T06:23:11;14.10;87.00
44607;DHT22;30315;46.072;14.474;2022-10-31T06:25:40;14.00;87.00
44607;DHT22;30315;46.072;14.474;2022-10-31T06:28:07;14.10;87.10
44607;DHT22;30315;46.072;14.474;2022-10-31T06:30:50;14.00;87.10
44607;DHT22;30315;46.072;14.474;2022-10-31T06:33:17;14.00;87.30
44607;DHT22;30315;46.072;14.474;2022-10-31T06:35:54;14.00;87.40
44607;DHT22;30315;46.072;14.474;2022-10-31T06:38:21;14.00;87.40
44607;DHT22;30315;46.072;14.474;2022-10-31T06:40:48;14.00;87.20
44607;DHT22;30315;46.072;14.474;2022-10-31T06:43:19;14.00;87.20
44607;DHT22;30315;46.072;14.474;2022-10-31T06:45:46;14.10;87.50
44607;DHT22;30315;46.072;14.474;2022-10-31T06:48:13;14.10;87.40
44607;DHT22;30315;46.072;14.474;2022-10-31T06:51:04;14.10;87.50
44607;DHT22;30315;46.072;14.474;2022-10-31T06:53:31;14.10;87.80
44607;DHT22;30315;46.072;14.474;2022-10-31T06:55:58;14.10;87.90
44607;DHT22;30315;46.072;14.474;2022-10-31T06:58:25;14.10;87.90
44607;DHT22;30315;46.072;14.474;2022-10-31T07:00:58;14.10;88.10
44607;DHT22;30315;46.072;14.474;2022-10-31T07:03:25;14.10;88.20
44607;DHT22;30315;46.072;14.474;2022-10-31T07:05:54;14.20;88.40
44607;DHT22;30315;46.072;14.474;2022-10-31T07:08:21;14.10;88.20
44607;DHT22;30315;46.072;14.474;2022-10-31T07:10:53;14.20;88.20
44607;DHT22;30315;46.072;14.474;2022-10-31T07:13:21;14.10;87.80
44607;DHT22;30315;46.072;14.474;2022-10-31T07:16:00;14.20;88.10
44607;DHT22;30315;46.072;14.474;2022-10-31T07:18:28;14.20;88.60
44607;DHT22;30315;46.072;14.474;2022-10-31T07:20:55;14.30;88.30
44607;DHT22;30315;46.072;14.474;2022-10-31T07:23:22;14.20;89.60
44607;DHT22;30315;46.072;14.474;2022-10-31T07:26:09;14.30;89.60
44607;DHT22;30315;46.072;14.474;2022-10-31T07:28:42;14.40;90.00
44607;DHT22;30315;46.072;14.474;2022-10-31T07:31:11;14.50;90.00
44607;DHT22;30315;46.072;14.474;2022-10-31T07:33:39;14.50;89.30
44607;DHT22;30315;46.072;14.474;2022-10-31T07:36:24;14.50;89.70
44607;DHT22;30315;46.072;14.474;2022-10-31T07:38:53;14.60;89.30
44607;DHT22;30315;46.072;14.474;2022-10-31T07:41:20;14.50;88.60
44607;DHT22;30315;46.072;14.474;2022-10-31T07:43:47;14.60;88.50
44607;DHT22;30315;46.072;14.474;2022-10-31T07:46:17;14.50;88.70
44607;DHT22;30315;46.072;14.474;2022-10-31T07:48:56;14.60;88.70
44607;DHT22;30315;46.072;14.474;2022-10-31T07:51:42;14.60;88.70
44607;DHT22;30315;46.072;14.474;2022-10-31T07:54:31;14.60;88.90
44607;DHT22;30315;46.072;14.474;2022-10-31T07:56:57;14.70;89.50
44607;DHT22;30315;46.072;14.474;2022-10-31T07:59:24;14.80;89.50
44607;DHT22;30315;46.072;14.474;2022-10-31T08:01:53;14.80;89.40
44607;DHT22;30315;46.072;14.474;2022-10-31T08:04:38;14.80;88.90
44607;DHT22;30315;46.072;14.474;2022-10-31T08:07:23;14.80;88.60
44607;DHT22;30315;46.072;14.474;2022-10-31T08:09:59;14.80;88.90
44607;DHT22;30315;46.072;14.474;2022-10-31T08:12:29;14.90;88.90
44607;DHT22;30315;46.072;14.474;2022-10-31T08:14:56;14.90;88.60
44607;DHT22;30315;46.072;14.474;2022-10-31T08:17:23;14.90;88.60
44607;DHT22;30315;46.072;14.474;2022-10-31T08:19:58;14.90;88.70
44607;DHT22;30315;46.072;14.474;2022-10-31T08:22:41;15.00;88.80
44607;DHT22;30315;46.072;14.474;2022-10-31T08:25:10;14.90;88.40
44607;DHT22;30315;46.072;14.474;2022-10-31T08:27:38;15.00;88.70
44607;DHT22;30315;46.072;14.474;2022-10-31T08:30:08;15.00;88.50
44607;DHT22;30315;46.072;14.474;2022-10-31T08:32:38;15.00;88.70
44607;DHT22;30315;46.072;14.474;2022-10-31T08:35:11;15.00;88.50
44607;DHT22;30315;46.072;14.474;2022-10-31T08:37:56;15.00;88.30
44607;DHT22;30315;46.072;14.474;2022-10-31T08:40:26;15.00;88.10
44607;DHT22;30315;46.072;14.474;2022-10-31T08:43:00;15.10;88.20
44607;DHT22;30315;46.072;14.474;2022-10-31T08:45:28;15.10;88.40
44607;DHT22;30315;46.072;14.474;2022-10-31T08:47:56;14.90;88.40
44607;DHT22;30315;46.072;14.474;2022-10-31T08:50:23;15.10;89.10
44607;DHT22;30315;46.072;14.474;2022-10-31T08:52:50;15.20;88.80
44607;DHT22;30315;46.072;14.474;2022-10-31T08:55:36;15.20;89.00
44607;DHT22;30315;46.072;14.474;2022-10-31T08:58:08;15.20;89.00
44607;DHT22;30315;46.072;14.474;2022-10-31T09:00:42;15.30;89.20
44607;DHT22;30315;46.072;14.474;2022-10-31T09:03:14;15.50;89.60
44607;DHT22;30315;46.072;14.474;2022-10-31T09:05:42;15.50;89.30
44607;DHT22;30315;46.072;14.474;2022-10-31T09:08:11;15.50;89.10
44607;DHT22;30315;46.072;14.474;2022-10-31T09:10:43;15.60;89.10
44607;DHT22;30315;46.072;14.474;2022-10-31T09:13:13;15.70;89.10
44607;DHT22;30315;46.072;14.474;2022-10-31T09:15:59;15.70;88.80
44607;DHT22;30315;46.072;14.474;2022-10-31T09:18:26;15.70;88.70
44607;DHT22;30315;46.072;14.474;2022-10-31T09:20:59;15.80;88.90
44607;DHT22;30315;46.072;14.474;2022-10-31T09:23:28;16.00;89.30
44607;DHT22;30315;46.072;14.474;2022-10-31T09:25:55;15.80;89.20
44607;DHT22;30315;46.072;14.474;2022-10-31T09:28:45;16.00;89.30
44607;DHT22;30315;46.072;14.474;2022-10-31T09:31:15;16.10;89.20
44607;DHT22;30315;46.072;14.474;2022-10-31T09:33:53;16.10;89.20
44607;DHT22;30315;46.072;14.474;2022-10-31T09:36:43;16.20;89.50
44607;DHT22;30315;46.072;14.474;2022-10-31T09:39:18;16.20;89.30
44607;DHT22;30315;46.072;14.474;2022-10-31T09:49:29;16.50;88.90
44607;DHT22;30315;46.072;14.474;2022-10-31T09:52:04;16.70;88.70
44607;DHT22;30315;46.072;14.474;2022-10-31T09:54:37;16.70;88.30
44607;DHT22;30315;46.072;14.474;2022-10-31T09:57:05;16.80;88.10
44607;DHT22;30315;46.072;14.474;2022-10-31T09:59:34;16.90;87.80
44607;DHT22;30315;46.072;14.474;2022-10-31T10:02:20;16.90;87.60
44607;DHT22;30315;46.072;14.474;2022-10-31T10:10:32;17.20;87.40
44607;DHT22;30315;46.072;14.474;2022-10-31T10:18:47;17.50;86.80
44607;DHT22;30315;46.072;14.474;2022-10-31T10:26:21;17.70;85.80
44607;DHT22;30315;46.072;14.474;2022-10-31T10:28:53;17.80;85.70
44607;DHT22;30315;46.072;14.474;2022-10-31T10:31:25;18.00;85.50
44607;DHT22;30315;46.072;14.474;2022-10-31T10:36:43;18.10;84.50
44607;DHT22;30315;46.072;14.474;2022-10-31T10:39:17;18.20;84.40
44607;DHT22;30315;46.072;14.474;2022-10-31T10:41:46;18.30;83.70
44607;DHT22;30315;46.072;14.474;2022-10-31T10:44:13;18.40;83.30
44607;DHT22;30315;46.072;14.474;2022-10-31T10:46:50;18.40;82.50
44607;DHT22;30315;46.072;14.474;2022-10-31T11:00:20;19.00;78.90
44607;DHT22;30315;46.072;14.474;2022-10-31T11:02:47;19.10;78.30
44607;DHT22;30315;46.072;14.474;2022-10-31T11:05:21;19.20;78.10
44607;DHT22;30315;46.072;14.474;2022-10-31T11:07:49;19.30;78.10
44607;DHT22;30315;46.072;14.474;2022-10-31T11:10:16;19.40;77.50
44607;DHT22;30315;46.072;14.474;2022-10-31T11:12:44;19.60;76.30
44607;DHT22;30315;46.072;14.474;2022-10-31T11:15:21;19.60;75.30
44607;DHT22;30315;46.072;14.474;2022-10-31T11:17:49;19.80;74.90
44607;DHT22;30315;46.072;14.474;2022-10-31T11:22:46;20.00;74.00
44607;DHT22;30315;46.072;14.474;2022-10-31T11:25:20;20.10;73.60
44607;DHT22;30315;46.072;14.474;2022-10-31T11:28:08;20.20;73.40
44607;DHT22;30315;46.072;14.474;2022-10-31T11:30:57;20.30;73.20
44607;DHT22;30315;46.072;14.474;2022-10-31T11:33:27;20.50;72.40
44607;DHT22;30315;46.072;14.474;2022-10-31T11:35:54;20.70;71.50
44607;DHT22;30315;46.072;14.474;2022-10-31T11:38:32;20.70;70.90
44607;DHT22;30315;46.072;14.474;2022-10-31T11:41:04;20.80;70.30
44607;DHT22;30315;46.072;14.474;2022-10-31T11:43:32;20.90;70.90
44607;DHT22;30315;46.072;14.474;2022-10-31T11:45:59;21.10;70.10
44607;DHT22;30315;46.072;14.474;2022-10-31T11:48:26;21.20;69.30
44607;DHT22;30315;46.072;14.474;2022-10-31T11:50:56;21.30;69.20
44607;DHT22;30315;46.072;14.474;2022-10-31T11:53:30;21.40;69.30
44607;DHT22;30315;46.072;14.474;2022-10-31T11:58:32;21.30;68.00
44607;DHT22;30315;46.072;14.474;2022-10-31T12:00:59;21.80;68.30
44607;DHT22;30315;46.072;14.474;2022-10-31T12:03:28;21.90;68.30
44607;DHT22;30315;46.072;14.474;2022-10-31T12:06:01;21.90;68.10
44607;DHT22;30315;46.072;14.474;2022-10-31T12:08:30;22.10;67.80
44607;DHT22;30315;46.072;14.474;2022-10-31T12:13:42;22.30;66.80
44607;DHT22;30315;46.072;14.474;2022-10-31T12:16:19;22.70;66.30
44607;DHT22;30315;46.072;14.474;2022-10-31T12:18:56;22.50;66.00
44607;DHT22;30315;46.072;14.474;2022-10-31T12:26:23;22.70;64.40
44607;DHT22;30315;46.072;14.474;2022-10-31T12:31:34;23.00;64.20
44607;DHT22;30315;46.072;14.474;2022-10-31T12:41:55;23.40;63.60
44607;DHT22;30315;46.072;14.474;2022-10-31T12:59:40;24.20;61.50
44607;DHT22;30315;46.072;14.474;2022-10-31T13:02:26;24.40;61.00
44607;DHT22;30315;46.072;14.474;2022-10-31T13:04:55;24.50;60.20
44607;DHT22;30315;46.072;14.474;2022-10-31T13:09:58;24.60;59.10
44607;DHT22;30315;46.072;14.474;2022-10-31T13:12:27;24.60;59.20
44607;DHT22;30315;46.072;14.474;2022-10-31T13:15:03;24.80;59.30
44607;DHT22;30315;46.072;14.474;2022-10-31T13:17:34;24.90;59.00
44607;DHT22;30315;46.072;14.474;2022-10-31T13:23:05;25.10;58.70
44607;DHT22;30315;46.072;14.474;2022-10-31T13:25:57;25.20;58.60
44607;DHT22;30315;46.072;14.474;2022-10-31T13:31:04;25.40;58.00
44607;DHT22;30315;46.072;14.474;2022-10-31T13:33:33;25.40;57.80
44607;DHT22;30315;46.072;14.474;2022-10-31T13:36:11;25.40;57.50
44607;DHT22;30315;46.072;14.474;2022-10-31T13:38:44;25.40;57.60
44607;DHT22;30315;46.072;14.474;2022-10-31T13:41:30;25.50;58.60
44607;DHT22;30315;46.072;14.474;2022-10-31T13:47:03;25.60;58.10
44607;DHT22;30315;46.072;14.474;2022-10-31T13:49:46;25.70;57.80
44607;DHT22;30315;46.072;14.474;2022-10-31T13:57:06;25.80;57.40
44607;DHT22;30315;46.072;14.474;2022-10-31T13:59:35;25.90;57.50
44607;DHT22;30315;46.072;14.474;2022-10-31T14:02:12;25.90;57.60
44607;DHT22;30315;46.072;14.474;2022-10-31T14:04:48;26.00;57.30
44607;DHT22;30315;46.072;14.474;2022-10-31T14:07:16;26.10;57.10
44607;DHT22;30315;46.072;14.474;2022-10-31T14:09:54;26.10;57.00
44607;DHT22;30315;46.072;14.474;2022-10-31T14:12:36;26.20;57.30
44607;DHT22;30315;46.072;14.474;2022-10-31T14:17:33;26.20;57.10
44607;DHT22;30315;46.072;14.474;2022-10-31T14:20:24;26.30;57.10
44607;DHT22;30315;46.072;14.474;2022-10-31T14:22:49;26.30;56.80
44607;DHT22;30315;46.072;14.474;2022-10-31T14:27:52;26.30;57.00
44607;DHT22;30315;46.072;14.474;2022-10-31T14:30:20;26.30;56.70
44607;DHT22;30315;46.072;14.474;2022-10-31T14:32:52;26.30;56.60
44607;DHT22;30315;46.072;14.474;2022-10-31T14:35:20;26.30;56.50
44607;DHT22;30315;46.072;14.474;2022-10-31T14:38:13;26.30;56.20
44607;DHT22;30315;46.072;14.474;2022-10-31T14:40:55;26.30;56.40
44607;DHT22;30315;46.072;14.474;2022-10-31T14:51:20;26.20;56.10
44607;DHT22;30315;46.072;14.474;2022-10-31T14:56:17;26.00;56.10
44607;DHT22;30315;46.072;14.474;2022-10-31T14:58:46;25.80;56.40
44607;DHT22;30315;46.072;14.474;2022-10-31T15:01:56;25.60;56.60
44607;DHT22;30315;46.072;14.474;2022-10-31T15:04:05;25.50;57.00
44607;DHT22;30315;46.072;14.474;2022-10-31T15:06:50;25.30;57.70
44607;DHT22;30315;46.072;14.474;2022-10-31T15:09:24;25.10;58.60
44607;DHT22;30315;46.072;14.474;2022-10-31T15:11:52;24.90;59.80
44607;DHT22;30315;46.072;14.474;2022-10-31T15:14:29;24.80;61.60
44607;DHT22;30315;46.072;14.474;2022-10-31T15:16:56;24.50;62.90
44607;DHT22;30315;46.072;14.474;2022-10-31T15:19:24;24.40;63.90
44607;DHT22;30315;46.072;14.474;2022-10-31T15:21:52;24.20;64.90
44607;DHT22;30315;46.072;14.474;2022-10-31T15:24:19;24.00;65.50
44607;DHT22;30315;46.072;14.474;2022-10-31T15:26:48;23.90;66.40
44607;DHT22;30315;46.072;14.474;2022-10-31T15:29:18;23.70;67.00
44607;DHT22;30315;46.072;14.474;2022-10-31T15:31:57;23.60;67.60
44607;DHT22;30315;46.072;14.474;2022-10-31T15:36:51;23.20;68.40
44607;DHT22;30315;46.072;14.474;2022-10-31T15:39:18;23.00;68.80
44607;DHT22;30315;46.072;14.474;2022-10-31T15:41:55;22.90;69.30
44607;DHT22;30315;46.072;14.474;2022-10-31T15:44:24;22.70;69.70
44607;DHT22;30315;46.072;14.474;2022-10-31T15:47:01;22.70;70.20
44607;DHT22;30315;46.072;14.474;2022-10-31T15:49:31;22.50;70.60
44607;DHT22;30315;46.072;14.474;2022-10-31T15:52:20;22.30;71.00
44607;DHT22;30315;46.072;14.474;2022-10-31T15:54:48;22.10;71.40
44607;DHT22;30315;46.072;14.474;2022-10-31T15:57:16;22.10;71.80
44607;DHT22;30315;46.072;14.474;2022-10-31T15:59:45;22.00;72.20
44607;DHT22;30315;46.072;14.474;2022-10-31T16:02:13;21.90;72.60
44607;DHT22;30315;46.072;14.474;2022-10-31T16:07:19;21.70;73.10
44607;DHT22;30315;46.072;14.474;2022-10-31T16:12:23;21.50;73.50
44607;DHT22;30315;46.072;14.474;2022-10-31T16:14:50;21.50;74.00
44607;DHT22;30315;46.072;14.474;2022-10-31T16:17:19;21.30;74.20
44607;DHT22;30315;46.072;14.474;2022-10-31T16:20:05;21.20;74.30
44607;DHT22;30315;46.072;14.474;2022-10-31T16:22:34;21.20;74.60
44607;DHT22;30315;46.072;14.474;2022-10-31T16:27:35;21.00;74.90
44607;DHT22;30315;46.072;14.474;2022-10-31T16:30:03;20.90;75.20
44607;DHT22;30315;46.072;14.474;2022-10-31T16:32:58;20.90;75.20
44607;DHT22;30315;46.072;14.474;2022-10-31T16:35:33;20.80;75.40
44607;DHT22;30315;46.072;14.474;2022-10-31T16:38:00;20.70;75.50
44607;DHT22;30315;46.072;14.474;2022-10-31T16:40:27;20.60;75.60
44607;DHT22;30315;46.072;14.474;2022-10-31T16:42:56;20.60;75.80
44607;DHT22;30315;46.072;14.474;2022-10-31T16:45:24;20.50;76.50
44607;DHT22;30315;46.072;14.474;2022-10-31T16:47:51;20.40;76.00
44607;DHT22;30315;46.072;14.474;2022-10-31T16:50:22;20.40;76.30
44607;DHT22;30315;46.072;14.474;2022-10-31T16:52:50;20.30;76.50
44607;DHT22;30315;46.072;14.474;2022-10-31T16:55:41;20.30;76.50
44607;DHT22;30315;46.072;14.474;2022-10-31T16:58:09;20.20;76.60
44607;DHT22;30315;46.072;14.474;2022-10-31T17:00:40;20.20;76.70
44607;DHT22;30315;46.072;14.474;2022-10-31T17:03:07;20.10;76.80
44607;DHT22;30315;46.072;14.474;2022-10-31T17:05:34;20.00;76.80
44607;DHT22;30315;46.072;14.474;2022-10-31T17:08:04;20.00;76.90
44607;DHT22;30315;46.072;14.474;2022-10-31T17:10:31;19.90;77.00
44607;DHT22;30315;46.072;14.474;2022-10-31T17:12:58;19.90;77.00
44607;DHT22;30315;46.072;14.474;2022-10-31T17:15:27;19.90;77.10
44607;DHT22;30315;46.072;14.474;2022-10-31T17:17:54;19.80;76.90
44607;DHT22;30315;46.072;14.474;2022-10-31T17:22:48;19.70;77.30
44607;DHT22;30315;46.072;14.474;2022-10-31T17:25:16;19.70;77.50
44607;DHT22;30315;46.072;14.474;2022-10-31T17:27:43;19.70;77.70
44607;DHT22;30315;46.072;14.474;2022-10-31T17:30:13;19.60;77.60
44607;DHT22;30315;46.072;14.474;2022-10-31T17:32:40;19.50;77.50
44607;DHT22;30315;46.072;14.474;2022-10-31T17:35:08;19.50;77.70
44607;DHT22;30315;46.072;14.474;2022-10-31T17:37:35;19.50;77.60
44607;DHT22;30315;46.072;14.474;2022-10-31T17:40:02;19.40;77.50
44607;DHT22;30315;46.072;14.474;2022-10-31T17:42:29;19.40;77.70
44607;DHT22;30315;46.072;14.474;2022-10-31T17:44:55;19.40;77.70
44607;DHT22;30315;46.072;14.474;2022-10-31T17:47:22;19.30;77.60
44607;DHT22;30315;46.072;14.474;2022-10-31T17:49:49;19.30;77.60
44607;DHT22;30315;46.072;14.474;2022-10-31T17:52:16;19.30;77.70
44607;DHT22;30315;46.072;14.474;2022-10-31T17:54:42;19.20;77.80
44607;DHT22;30315;46.072;14.474;2022-10-31T17:57:09;19.20;77.80
44607;DHT22;30315;46.072;14.474;2022-10-31T17:59:36;19.20;77.90
44607;DHT22;30315;46.072;14.474;2022-10-31T18:02:05;19.10;77.90
44607;DHT22;30315;46.072;14.474;2022-10-31T18:04:35;19.10;77.90
44607;DHT22;30315;46.072;14.474;2022-10-31T18:07:02;19.00;77.80
44607;DHT22;30315;46.072;14.474;2022-10-31T18:09:29;19.00;77.80
44607;DHT22;30315;46.072;14.474;2022-10-31T18:11:56;19.00;77.90
44607;DHT22;30315;46.072;14.474;2022-10-31T18:14:23;18.90;77.90
44607;DHT22;30315;46.072;14.474;2022-10-31T18:16:50;18.90;77.90